Time;durP1;ratioP1;P1;durP2;ratioP2;P2;SDS_P1;SDS_P2;PMS_P1;PMS_P2;Temp;Humidity;BMP_temperature;BMP_pressure;BME280_temperature;BME280_humidity;BME280_pressure;Samples;Min_cycle;Max_cycle;Signal;HPM_P1;HPM_P2
2023/11/25 00:01:38;;;;;;;13.20;6.20;;;;;;;2.24;100.00;98194.08;105459;1261;100143;-76
2023/11/25 00:04:23;;;;;;;12.30;6.00;;;;;;;2.25;100.00;98197.23;105518;1256;99676;-76
2023/11/25 00:07:09;;;;;;;11.10;5.80;;;;;;;2.23;100.00;98197.63;105428;1256;97805;-76
2023/11/25 00:09:54;;;;;;;10.60;5.80;;;;;;;2.22;100.00;98199.29;105517;1258;96723;-76
2023/11/25 00:12:40;;;;;;;10.30;6.20;;;;;;;2.21;100.00;98202.05;105518;1255;97043;-75
2023/11/25 00:15:25;;;;;;;15.60;6.60;;;;;;;2.19;100.00;98200.24;105643;1256;99962;-75
2023/11/25 00:18:11;;;;;;;16.10;5.80;;;;;;;2.18;100.00;98202.42;105508;1256;99167;-76
2023/11/25 00:20:56;;;;;;;14.60;6.00;;;;;;;2.18;100.00;98202.73;105587;1256;97762;-76
2023/11/25 00:23:42;;;;;;;12.00;7.00;;;;;;;2.21;100.00;98205.79;105616;1256;97782;-75
2023/11/25 00:26:27;;;;;;;13.20;6.10;;;;;;;2.19;100.00;98208.70;105543;1260;97524;-76
2023/11/25 00:29:18;;;;;;;9.30;6.30;;;;;;;2.13;100.00;98208.04;105518;1257;99977;-75
2023/11/25 00:32:03;;;;;;;9.20;6.10;;;;;;;2.05;100.00;98209.36;105494;1260;99079;-75
2023/11/25 00:34:49;;;;;;;10.40;5.20;;;;;;;2.00;100.00;98213.41;105474;1257;97754;-76
2023/11/25 00:37:35;;;;;;;10.50;6.60;;;;;;;1.98;100.00;98209.95;105475;1260;96690;-76
2023/11/25 00:40:25;;;;;;;10.80;6.40;;;;;;;1.94;100.00;98209.55;105535;1259;96605;-76
2023/11/25 00:43:11;;;;;;;10.00;6.40;;;;;;;1.92;100.00;98213.52;105424;1259;100564;-77
2023/11/25 00:45:57;;;;;;;10.90;6.60;;;;;;;1.94;100.00;98214.82;105265;1260;99154;-75
2023/11/25 00:48:43;;;;;;;11.20;7.40;;;;;;;1.97;100.00;98211.48;105194;1260;97801;-76
2023/11/25 00:51:29;;;;;;;8.70;6.40;;;;;;;1.98;100.00;98211.37;105304;1256;96545;-75
2023/11/25 00:54:16;;;;;;;11.90;7.00;;;;;;;1.99;100.00;98215.11;105233;1256;96513;-75
2023/11/25 00:57:02;;;;;;;13.40;6.60;;;;;;;2.00;100.00;98215.62;105203;1257;101286;-75
2023/11/25 00:59:48;;;;;;;8.90;6.10;;;;;;;2.01;100.00;98212.85;105265;1256;100310;-76
2023/11/25 01:02:34;;;;;;;11.30;6.80;;;;;;;2.00;100.00;98214.77;105408;1256;97717;-75
2023/11/25 01:05:19;;;;;;;10.10;6.40;;;;;;;1.98;100.00;98214.70;105309;1256;97075;-74
2023/11/25 01:08:05;;;;;;;9.10;6.10;;;;;;;1.98;100.00;98214.46;105227;1261;97173;-75
2023/11/25 01:10:51;;;;;;;8.00;6.00;;;;;;;1.98;100.00;98212.38;105248;1256;100094;-75
2023/11/25 01:13:37;;;;;;;7.20;5.50;;;;;;;1.97;100.00;98205.19;105232;1260;100556;-76
2023/11/25 01:16:23;;;;;;;9.00;6.50;;;;;;;1.97;100.00;98211.80;105095;1262;97806;-75
2023/11/25 01:19:08;;;;;;;9.50;6.30;;;;;;;1.98;100.00;98216.15;105235;1257;96687;-77
2023/11/25 01:21:54;;;;;;;9.40;5.70;;;;;;;1.98;100.00;98222.01;105251;1261;98447;-75
2023/11/25 01:24:40;;;;;;;7.90;5.30;;;;;;;1.97;100.00;98221.31;105174;1256;99958;-74
2023/11/25 01:27:25;;;;;;;7.60;5.30;;;;;;;1.96;100.00;98226.25;105241;1256;100357;-75
2023/11/25 01:30:12;;;;;;;6.50;5.30;;;;;;;1.94;100.00;98226.65;105286;1256;98361;-74
2023/11/25 01:33:02;;;;;;;9.90;6.40;;;;;;;1.93;100.00;98227.05;105266;1260;97372;-75
2023/11/25 01:35:48;;;;;;;7.70;5.60;;;;;;;1.93;100.00;98223.75;105228;1260;96654;-75
2023/11/25 01:38:34;;;;;;;9.70;5.30;;;;;;;1.94;100.00;98224.40;105254;1260;100779;-75
2023/11/25 01:41:20;;;;;;;10.00;5.80;;;;;;;1.95;100.00;98224.09;105258;1260;100850;-76
2023/11/25 01:44:07;;;;;;;8.10;5.00;;;;;;;1.96;100.00;98227.46;105163;1262;97749;-75
2023/11/25 01:46:53;;;;;;;6.00;5.10;;;;;;;1.97;100.00;98227.52;105206;1256;96697;-75
2023/11/25 01:49:40;;;;;;;7.10;5.40;;;;;;;1.97;100.00;98225.08;105300;1256;97891;-75
2023/11/25 01:52:25;;;;;;;6.50;4.70;;;;;;;1.96;100.00;98222.28;105350;1260;99985;-76
2023/11/25 01:55:13;;;;;;;6.80;4.40;;;;;;;1.96;100.00;98224.80;105332;1256;99195;-75
2023/11/25 01:57:59;;;;;;;8.10;4.70;;;;;;;1.97;100.00;98231.01;105325;1260;98601;-76
2023/11/25 02:00:46;;;;;;;5.40;4.40;;;;;;;1.96;100.00;98237.86;105297;1261;96591;-76
2023/11/25 02:03:32;;;;;;;8.70;4.30;;;;;;;1.94;100.00;98243.05;105318;1262;96547;-76
2023/11/25 02:06:19;;;;;;;6.40;4.40;;;;;;;1.92;100.00;98243.81;105231;1260;100046;-76
2023/11/25 02:09:05;;;;;;;5.70;3.90;;;;;;;1.95;100.00;98245.70;105259;1256;99118;-76
2023/11/25 02:11:57;;;;;;;8.30;4.30;;;;;;;1.94;100.00;98244.09;105406;1262;99940;-76
2023/11/25 02:14:42;;;;;;;5.90;4.40;;;;;;;1.90;100.00;98248.19;105507;1260;97898;-76
2023/11/25 02:17:28;;;;;;;6.80;4.10;;;;;;;1.90;100.00;98252.48;105510;1256;97056;-76
2023/11/25 02:20:13;;;;;;;8.70;4.30;;;;;;;1.91;100.00;98257.69;105477;1261;99980;-76
2023/11/25 02:22:59;;;;;;;7.30;4.70;;;;;;;1.91;100.00;98260.77;105456;1261;100374;-76
2023/11/25 02:25:49;;;;;;;8.20;4.20;;;;;;;1.91;100.00;98263.73;105493;1260;97731;-77
2023/11/25 02:28:35;;;;;;;6.70;4.40;;;;;;;1.91;100.00;98270.52;105951;1256;96626;-76
2023/11/25 02:31:22;;;;;;;9.00;4.80;;;;;;;1.91;100.00;98269.30;105718;1256;96531;-76
2023/11/25 02:34:09;;;;;;;8.00;4.80;;;;;;;1.93;100.00;98267.41;105603;1260;99989;-76
2023/11/25 02:36:57;;;;;;;7.70;4.60;;;;;;;1.93;100.00;98271.63;105612;1260;99084;-76
2023/11/25 02:39:43;;;;;;;9.30;5.00;;;;;;;1.93;100.00;98273.78;105525;1260;99444;-76
2023/11/25 02:42:28;;;;;;;6.70;4.90;;;;;;;1.89;100.00;98277.00;105512;1256;96621;-76
2023/11/25 02:45:19;;;;;;;5.50;3.80;;;;;;;1.87;100.00;98281.52;105288;1260;97694;-76
2023/11/25 02:48:05;;;;;;;5.90;4.60;;;;;;;1.86;100.00;98287.48;105257;1261;101012;-75
2023/11/25 02:50:52;;;;;;;6.10;4.10;;;;;;;1.84;100.00;98291.60;105213;1256;99068;-76
2023/11/25 02:53:38;;;;;;;4.70;3.40;;;;;;;1.81;100.00;98299.70;105265;1260;97753;-76
2023/11/25 02:56:25;;;;;;;4.50;3.40;;;;;;;1.80;100.00;98305.44;105181;1256;97239;-76
2023/11/25 02:59:12;;;;;;;4.80;3.90;;;;;;;1.78;100.00;98305.05;105349;1260;96544;-75
2023/11/25 03:02:05;;;;;;;5.30;3.50;;;;;;;1.78;100.00;98308.48;105259;1258;100045;-76
2023/11/25 03:04:53;;;;;;;3.50;3.20;;;;;;;1.78;100.00;98310.82;105257;1261;99409;-75
2023/11/25 03:07:39;;;;;;;6.00;3.40;;;;;;;1.78;100.00;98316.30;105442;1256;98979;-76
2023/11/25 03:10:25;;;;;;;4.50;3.80;;;;;;;1.75;100.00;98316.23;105318;1262;96619;-75
2023/11/25 03:13:12;;;;;;;4.80;3.70;;;;;;;1.73;100.00;98315.12;105182;1260;97643;-75
2023/11/25 03:15:57;;;;;;;6.80;3.60;;;;;;;1.73;100.00;98317.07;105109;1262;101361;-76
2023/11/25 03:18:43;;;;;;;4.10;3.50;;;;;;;1.73;100.00;98314.63;105194;1256;99153;-76
2023/11/25 03:21:28;;;;;;;7.50;4.10;;;;;;;1.72;100.00;98315.39;105180;1257;98401;-76
2023/11/25 03:24:16;;;;;;;4.40;3.50;;;;;;;1.70;100.00;98311.39;105477;1257;96639;-76
2023/11/25 03:27:02;;;;;;;4.90;3.20;;;;;;;1.68;100.00;98305.31;106278;1256;97497;-76
2023/11/25 03:29:47;;;;;;;4.80;2.80;;;;;;;1.67;100.00;98310.45;105494;1256;101023;-76
2023/11/25 03:32:34;;;;;;;4.80;3.60;;;;;;;1.65;100.00;98310.02;105550;1256;99222;-76
2023/11/25 03:35:21;;;;;;;7.00;3.10;;;;;;;1.62;100.00;98324.39;105373;1260;97815;-76
2023/11/25 03:38:06;;;;;;;4.80;2.90;;;;;;;1.60;100.00;98331.98;105385;1259;97483;-75
2023/11/25 03:40:52;;;;;;;3.20;2.90;;;;;;;1.60;100.00;98334.69;105165;1261;97292;-76
2023/11/25 03:43:38;;;;;;;3.50;2.90;;;;;;;1.58;100.00;98335.01;105183;1260;101809;-77
2023/11/25 03:46:24;;;;;;;3.40;2.50;;;;;;;1.59;100.00;98332.48;105284;1260;99081;-76
2023/11/25 03:49:10;;;;;;;3.50;2.80;;;;;;;1.60;100.00;98334.70;105279;1256;97990;-76
2023/11/25 03:51:55;;;;;;;3.10;2.80;;;;;;;1.59;100.00;98331.58;105399;1256;97252;-77
2023/11/25 03:54:41;;;;;;;5.40;3.00;;;;;;;1.60;100.00;98335.39;105425;1257;97049;-76
2023/11/25 03:57:26;;;;;;;2.80;2.40;;;;;;;1.59;100.00;98338.98;105408;1256;99999;-76
2023/11/25 04:00:15;;;;;;;3.70;2.90;;;;;;;1.57;100.00;98344.77;105200;1256;100094;-76
2023/11/25 04:03:01;;;;;;;2.50;2.20;;;;;;;1.57;100.00;98348.02;105123;1260;99044;-75
2023/11/25 04:05:47;;;;;;;4.80;3.10;;;;;;;1.56;100.00;98349.05;105363;1260;97119;-75
2023/11/25 04:08:33;;;;;;;2.80;2.60;;;;;;;1.56;100.00;98354.33;105291;1256;97840;-75
2023/11/25 04:11:18;;;;;;;5.60;3.20;;;;;;;1.58;100.00;98355.98;105222;1260;101848;-75
2023/11/25 04:14:04;;;;;;;3.20;2.60;;;;;;;1.57;100.00;98355.45;105214;1262;99070;-75
2023/11/25 04:16:50;;;;;;;4.70;3.00;;;;;;;1.53;100.00;98351.66;105183;1256;97698;-76
2023/11/25 04:19:36;;;;;;;3.90;3.00;;;;;;;1.49;100.00;98352.48;105202;1262;97075;-76
2023/11/25 04:22:23;;;;;;;4.10;3.30;;;;;;;1.48;100.00;98351.68;105165;1261;96779;-76
2023/11/25 04:25:11;;;;;;;3.20;2.80;;;;;;;1.48;100.00;98354.40;105193;1261;101236;-77
2023/11/25 04:27:57;;;;;;;5.20;3.40;;;;;;;1.46;100.00;98360.05;105237;1262;99162;-76
2023/11/25 04:30:42;;;;;;;3.70;3.20;;;;;;;1.45;100.00;98363.41;105296;1262;97881;-75
2023/11/25 04:33:29;;;;;;;4.00;3.30;;;;;;;1.43;100.00;98365.45;105172;1259;96593;-76
2023/11/25 04:36:17;;;;;;;3.30;2.90;;;;;;;1.42;100.00;98365.20;105231;1260;97039;-76
2023/11/25 04:39:04;;;;;;;3.40;3.10;;;;;;;1.43;100.00;98371.54;105284;1256;99985;-76
2023/11/25 04:41:49;;;;;;;3.80;2.90;;;;;;;1.43;100.00;98373.11;105188;1256;99114;-75
2023/11/25 04:44:35;;;;;;;3.30;2.60;;;;;;;1.42;100.00;98373.79;105281;1256;99097;-76
2023/11/25 04:47:21;;;;;;;3.30;2.90;;;;;;;1.40;100.00;98378.96;105186;1260;96610;-76
2023/11/25 04:50:07;;;;;;;4.10;2.50;;;;;;;1.37;100.00;98389.83;105253;1256;97117;-76
2023/11/25 04:52:52;;;;;;;4.80;3.40;;;;;;;1.33;100.00;98396.67;105273;1261;99936;-76
2023/11/25 04:55:38;;;;;;;4.80;2.80;;;;;;;1.29;100.00;98401.57;105243;1259;100361;-77
2023/11/25 04:58:24;;;;;;;3.00;2.70;;;;;;;1.27;100.00;98403.05;105375;1259;99046;-76
2023/11/25 05:01:09;;;;;;;4.00;2.90;;;;;;;1.26;100.00;98402.59;105255;1261;96698;-75
2023/11/25 05:03:55;;;;;;;3.50;2.80;;;;;;;1.26;100.00;98411.16;105383;1259;97033;-76
2023/11/25 05:06:41;;;;;;;3.90;3.50;;;;;;;1.27;100.00;98414.45;105469;1259;100008;-75
2023/11/25 05:09:26;;;;;;;4.30;3.30;;;;;;;1.28;100.00;98417.02;105268;1256;99061;-76
2023/11/25 05:12:12;;;;;;;4.80;3.40;;;;;;;1.28;100.00;98426.42;105218;1260;98979;-77
2023/11/25 05:14:58;;;;;;;3.70;3.20;;;;;;;1.27;100.00;98432.37;105207;1259;96643;-77
2023/11/25 05:17:43;;;;;;;3.90;3.50;;;;;;;1.28;100.00;98442.28;105338;1262;96603;-77
2023/11/25 05:20:29;;;;;;;4.20;3.10;;;;;;;1.27;100.00;98448.07;105215;1258;101256;-76
2023/11/25 05:23:15;;;;;;;5.20;3.40;;;;;;;1.26;100.00;98450.41;105295;1262;99130;-76
2023/11/25 05:26:01;;;;;;;2.90;2.60;;;;;;;1.26;100.00;98456.88;105262;1256;97757;-76
2023/11/25 05:28:46;;;;;;;4.50;3.20;;;;;;;1.25;100.00;98463.39;105504;1262;96524;-77
2023/11/25 05:31:36;;;;;;;3.90;3.20;;;;;;;1.23;100.00;98467.33;105321;1256;97267;-76
2023/11/25 05:34:21;;;;;;;3.30;2.90;;;;;;;1.20;100.00;98471.73;105235;1256;101303;-76
2023/11/25 05:37:10;;;;;;;3.50;2.90;;;;;;;1.16;100.00;98477.77;105268;1260;99884;-76
2023/11/25 05:39:55;;;;;;;4.40;3.00;;;;;;;1.15;100.00;98481.08;105252;1256;97995;-77
2023/11/25 05:42:47;;;;;;;3.20;2.80;;;;;;;1.14;100.00;98486.09;105253;1256;96589;-77
2023/11/25 05:45:32;;;;;;;;;;;;;;;1.15;100.00;98490.80;105283;1257;96603;-76
2023/11/25 05:48:18;;;;;;;5.80;2.60;;;;;;;1.14;100.00;98495.63;105429;1256;100707;-76
2023/11/25 05:51:04;;;;;;;3.50;2.10;;;;;;;1.14;100.00;98502.61;105456;1260;99145;-76
2023/11/25 05:53:49;;;;;;;3.80;2.30;;;;;;;1.12;100.00;98509.05;105200;1256;97888;-76
2023/11/25 05:56:35;;;;;;;2.60;2.30;;;;;;;1.11;100.00;98511.92;105218;1262;96656;-77
2023/11/25 05:59:20;;;;;;;2.60;2.30;;;;;;;1.11;100.00;98520.19;105304;1260;97533;-76
2023/11/25 06:02:06;;;;;;;4.80;2.70;;;;;;;1.08;100.00;98524.24;105298;1260;99969;-76
2023/11/25 06:04:51;;;;;;;2.60;2.20;;;;;;;1.07;100.00;98526.14;105250;1262;99120;-77
2023/11/25 06:07:37;;;;;;;2.80;2.50;;;;;;;1.08;100.00;98530.47;105378;1256;97922;-78
2023/11/25 06:10:23;;;;;;;2.70;2.40;;;;;;;1.10;100.00;98536.65;105070;1256;96690;-76
2023/11/25 06:13:08;;;;;;;3.10;2.80;;;;;;;1.10;100.00;98541.75;105349;1259;97116;-76
2023/11/25 06:15:56;;;;;;;3.50;2.60;;;;;;;1.07;100.00;98544.05;105249;1262;100626;-77
2023/11/25 06:18:41;;;;;;;2.90;2.60;;;;;;;1.07;100.00;98554.51;105323;1257;100851;-76
2023/11/25 06:21:27;;;;;;;2.50;2.30;;;;;;;1.06;100.00;98560.34;105260;1270;99041;-76
2023/11/25 06:24:15;;;;;;;4.50;2.60;;;;;;;1.07;100.00;98567.45;105314;1259;96609;-76
2023/11/25 06:27:01;;;;;;;2.90;2.60;;;;;;;1.09;100.00;98569.64;105277;1259;96594;-77
2023/11/25 06:29:47;;;;;;;2.90;2.60;;;;;;;1.12;100.00;98574.89;105217;1256;101840;-75
2023/11/25 06:32:33;;;;;;;2.60;2.10;;;;;;;1.16;100.00;98579.71;105267;1261;100323;-76
2023/11/25 06:35:18;;;;;;;2.90;2.40;;;;;;;1.18;100.00;98585.14;105261;1256;97757;-76
2023/11/25 06:38:04;;;;;;;5.30;2.70;;;;;;;1.19;100.00;98588.16;105164;1259;97086;-75
2023/11/25 06:40:50;;;;;;;2.70;2.20;;;;;;;1.22;100.00;98590.88;105336;1263;96719;-76
2023/11/25 06:43:37;;;;;;;2.50;2.00;;;;;;;1.20;100.00;98589.60;105247;1257;101256;-76
2023/11/25 06:46:23;;;;;;;2.90;2.40;;;;;;;1.18;100.00;98593.08;105451;1259;99079;-75
2023/11/25 06:49:09;;;;;;;2.70;2.20;;;;;;;1.17;100.00;98596.45;105270;1260;97896;-76
2023/11/25 06:51:55;;;;;;;3.50;2.40;;;;;;;1.19;100.00;98597.36;105311;1256;96665;-76
2023/11/25 06:54:40;;;;;;;3.00;2.20;;;;;;;1.22;100.00;98603.50;105311;1257;96598;-76
2023/11/25 06:57:26;;;;;;;2.90;2.50;;;;;;;1.24;100.00;98601.34;105348;1262;99983;-75
2023/11/25 07:00:13;;;;;;;3.50;3.00;;;;;;;1.23;100.00;98603.23;105416;1260;100071;-75
2023/11/25 07:02:58;;;;;;;4.10;2.60;;;;;;;1.22;100.00;98602.58;105260;1262;98279;-76
2023/11/25 07:05:44;;;;;;;2.80;2.10;;;;;;;1.23;100.00;98606.56;105357;1259;96622;-76
2023/11/25 07:08:32;;;;;;;2.70;2.00;;;;;;;1.22;100.00;98607.55;105298;1262;97047;-76
2023/11/25 07:11:18;;;;;;;3.20;2.10;;;;;;;1.19;100.00;98607.04;105278;1256;99979;-75
2023/11/25 07:14:05;;;;;;;3.30;2.10;;;;;;;1.18;100.00;98606.95;105243;1256;99076;-75
2023/11/25 07:16:52;;;;;;;2.60;2.30;;;;;;;1.18;100.00;98612.88;105464;1260;99022;-76
2023/11/25 07:19:41;;;;;;;4.40;2.20;;;;;;;1.18;100.00;98620.27;105296;1261;96608;-77
2023/11/25 07:22:26;;;;;;;3.20;2.20;;;;;;;1.20;100.00;98622.08;105417;1256;97128;-75
2023/11/25 07:25:12;;;;;;;3.30;2.00;;;;;;;1.18;100.00;98624.03;105213;1261;101267;-76
2023/11/25 07:27:58;;;;;;;3.00;2.20;;;;;;;1.17;100.00;98628.48;105343;1260;99124;-76
2023/11/25 07:30:44;;;;;;;4.00;2.80;;;;;;;1.17;100.00;98630.11;105451;1259;98803;-76
2023/11/25 07:33:30;;;;;;;2.90;2.10;;;;;;;1.15;100.00;98635.55;105848;1256;96607;-76
2023/11/25 07:36:15;;;;;;;3.50;2.30;;;;;;;1.16;100.00;98640.95;105278;1256;97843;-76
2023/11/25 07:39:01;;;;;;;4.80;2.80;;;;;;;1.16;100.00;98642.54;105406;1257;100990;-76
2023/11/25 07:41:46;;;;;;;5.30;2.80;;;;;;;1.17;100.00;98643.80;105406;1257;99150;-76
2023/11/25 07:44:32;;;;;;;5.40;2.50;;;;;;;1.18;100.00;98651.95;105283;1260;98499;-76
2023/11/25 07:47:18;;;;;;;4.70;2.10;;;;;;;1.17;100.00;98647.47;105246;1256;97320;-76
2023/11/25 07:50:04;;;;;;;5.00;2.20;;;;;;;1.15;100.00;98652.83;105176;1256;222824;-76
2023/11/25 07:52:51;;;;;;;2.60;2.30;;;;;;;1.17;100.00;98656.77;105221;1262;101211;-75
2023/11/25 07:55:36;;;;;;;4.40;2.60;;;;;;;1.23;100.00;98666.68;105183;1261;100873;-75
2023/11/25 07:58:25;;;;;;;4.40;2.60;;;;;;;1.29;100.00;98672.12;105209;1258;97920;-76
2023/11/25 08:01:12;;;;;;;3.40;2.80;;;;;;;1.33;100.00;98672.11;105400;1262;96608;-76
2023/11/25 08:03:58;;;;;;;8.10;4.90;;;;;;;1.35;100.00;98679.69;105442;1262;97185;-76
2023/11/25 08:06:43;;;;;;;12.20;7.70;;;;;;;1.37;100.00;98684.29;105420;1260;101319;-76
2023/11/25 08:09:29;;;;;;;6.90;5.20;;;;;;;1.38;100.00;98691.41;105228;1260;99073;-74
2023/11/25 08:12:14;;;;;;;5.00;3.20;;;;;;;1.40;100.00;98690.51;105311;1257;98730;-75
2023/11/25 08:15:00;;;;;;;7.80;5.80;;;;;;;1.42;100.00;98696.27;105195;1260;96567;-76
2023/11/25 08:17:46;;;;;;;6.90;4.10;;;;;;;1.43;100.00;98694.41;105230;1262;96893;-77
2023/11/25 08:20:32;;;;;;;5.20;3.00;;;;;;;1.43;100.00;98696.55;105147;1257;99982;-74
2023/11/25 08:23:17;;;;;;;9.30;3.30;;;;;;;1.43;100.00;98697.90;105312;1260;100956;-75
2023/11/25 08:26:03;;;;;;;3.60;2.30;;;;;;;1.41;100.00;98704.31;105314;1256;99138;-76
2023/11/25 08:28:49;;;;;;;4.60;2.60;;;;;;;1.40;100.00;98710.79;105228;1271;96612;-74
2023/11/25 08:31:35;;;;;;;6.20;2.70;;;;;;;1.35;100.00;98713.46;105240;1259;96603;-74
2023/11/25 08:34:21;;;;;;;5.50;2.70;;;;;;;1.31;100.00;98713.35;105183;1261;99961;-74
2023/11/25 08:37:07;;;;;;;5.60;2.80;;;;;;;1.33;100.00;98718.20;105231;1261;99054;-74
2023/11/25 08:39:54;;;;;;;4.60;2.60;;;;;;;1.33;100.00;98721.94;105276;1262;98962;-76
2023/11/25 08:42:40;;;;;;;8.50;4.10;;;;;;;1.35;100.00;98725.05;106032;1260;97376;-84
2023/11/25 08:45:26;;;;;;;5.10;3.90;;;;;;;1.37;100.00;98726.09;106417;1256;96992;-82
2023/11/25 08:48:12;;;;;;;7.90;5.60;;;;;;;1.36;100.00;98725.27;106397;1257;102362;-84
2023/11/25 08:50:58;;;;;;;9.50;5.50;;;;;;;1.34;100.00;98722.02;106309;1261;99167;-84
2023/11/25 08:53:47;;;;;;;10.40;5.90;;;;;;;1.32;100.00;98724.65;106950;1260;98221;-78
2023/11/25 08:56:33;;;;;;;10.40;4.90;;;;;;;1.32;100.00;98721.48;105961;1260;96587;-79
2023/11/25 08:59:20;;;;;;;10.60;6.10;;;;;;;1.32;100.00;98723.50;105923;1262;97167;-81
2023/11/25 09:02:09;;;;;;;11.60;6.10;;;;;;;1.31;100.00;98730.79;106500;1261;100891;-82
2023/11/25 09:04:55;;;;;;;9.50;6.20;;;;;;;1.28;100.00;98727.73;106781;1260;101321;-83
2023/11/25 09:07:42;;;;;;;10.90;5.70;;;;;;;1.26;100.00;98728.41;106473;1257;98336;-79
2023/11/25 09:10:27;;;;;;;11.20;4.90;;;;;;;1.25;100.00;98730.83;106332;1257;97089;-82
2023/11/25 09:13:13;;;;;;;10.60;6.50;;;;;;;1.22;100.00;98736.41;106253;1262;95941;-81
2023/11/25 09:15:58;;;;;;;9.30;5.20;;;;;;;1.18;100.00;98734.05;106465;1262;100078;-82
2023/11/25 09:18:44;;;;;;;8.20;4.70;;;;;;;1.14;100.00;98736.13;106310;1257;100569;-82
2023/11/25 09:21:30;;;;;;;7.80;4.40;;;;;;;1.11;100.00;98738.84;106455;1262;99402;-84
2023/11/25 09:24:16;;;;;;;9.70;4.80;;;;;;;1.11;100.00;98743.88;106413;1262;96400;-81
2023/11/25 09:27:02;;;;;;;8.40;4.10;;;;;;;1.09;100.00;98749.49;106498;1262;96578;-81
2023/11/25 09:29:48;;;;;;;8.20;5.30;;;;;;;1.07;100.00;98745.35;106498;1256;101020;-83
2023/11/25 09:32:34;;;;;;;5.90;3.70;;;;;;;1.07;100.00;98741.25;106464;1256;100401;-80
2023/11/25 09:35:21;;;;;;;5.20;4.50;;;;;;;1.08;100.00;98741.84;106545;1263;99048;-80
2023/11/25 09:38:07;;;;;;;8.90;4.60;;;;;;;1.08;100.00;98744.84;106373;1262;97901;-77
2023/11/25 09:40:52;;;;;;;5.30;3.70;;;;;;;1.09;100.00;98745.23;105573;1260;96625;-77
2023/11/25 09:43:39;;;;;;;7.20;4.30;;;;;;;1.11;100.00;98748.06;105339;1256;101194;-78
2023/11/25 09:46:25;;;;;;;8.90;4.50;;;;;;;1.10;100.00;98752.88;105251;1260;99623;-77
2023/11/25 09:49:11;;;;;;;6.00;4.10;;;;;;;1.10;100.00;98755.22;105311;1260;98650;-78
2023/11/25 09:52:04;;;;;;;7.30;4.90;;;;;;;1.06;100.00;98755.64;105399;1260;96609;-78
2023/11/25 09:54:55;;;;;;;6.50;5.20;;;;;;;1.04;100.00;98757.12;105287;1260;96553;-78
2023/11/25 09:57:42;;;;;;;13.80;5.90;;;;;;;1.02;100.00;98756.73;105611;1260;100731;-80
2023/11/25 10:00:28;;;;;;;6.90;4.10;;;;;;;1.01;100.00;98752.89;106383;1260;99067;-83
2023/11/25 10:03:16;;;;;;;7.20;5.20;;;;;;;0.99;100.00;98751.91;106275;1257;97894;-80
2023/11/25 10:06:03;;;;;;;7.60;4.80;;;;;;;1.01;100.00;98747.80;106597;1263;97155;-82
2023/11/25 10:08:51;;;;;;;6.80;4.40;;;;;;;1.02;100.00;98745.92;106327;1257;97855;-82
2023/11/25 10:11:47;;;;;;;6.70;5.40;;;;;;;1.01;100.00;98745.86;106387;1256;101249;-80
2023/11/25 10:14:33;;;;;;;10.00;5.20;;;;;;;1.00;100.00;98746.34;106504;1257;99136;-81
2023/11/25 10:17:23;;;;;;;8.10;5.10;;;;;;;1.01;100.00;98759.40;106464;1258;97917;-84
2023/11/25 10:20:10;;;;;;;7.30;5.80;;;;;;;1.04;100.00;98764.61;106333;1263;96786;-77
2023/11/25 10:22:58;;;;;;;8.20;5.80;;;;;;;1.07;100.00;98764.83;105824;1260;96544;-83
2023/11/25 10:25:44;;;;;;;8.10;5.20;;;;;;;1.06;100.00;98772.64;106369;1257;101489;-87
2023/11/25 10:28:36;;;;;;;9.70;6.30;;;;;;;1.06;100.00;98778.27;106176;1256;99185;-82
2023/11/25 10:31:22;;;;;;;10.80;7.30;;;;;;;1.07;100.00;98778.49;106404;1258;97702;-85
2023/11/25 10:34:13;;;;;;;11.70;7.70;;;;;;;1.10;100.00;98783.86;106206;1258;96705;-81
2023/11/25 10:37:01;;;;;;;10.50;6.50;;;;;;;1.10;100.00;98785.21;106279;1260;96579;-82
2023/11/25 10:39:47;;;;;;;10.30;5.90;;;;;;;1.11;100.00;98785.95;106310;1262;100052;-81
2023/11/25 10:42:33;;;;;;;10.00;5.70;;;;;;;1.11;100.00;98788.46;106271;1257;100393;-83
2023/11/25 10:45:22;;;;;;;9.60;6.90;;;;;;;1.12;100.00;98791.47;106179;1262;99238;-83
2023/11/25 10:48:10;;;;;;;9.70;7.00;;;;;;;1.14;100.00;98793.38;106135;1261;96746;-83
2023/11/25 10:50:57;;;;;;;9.50;6.40;;;;;;;1.13;100.00;98797.04;106205;1258;96530;-80
2023/11/25 10:53:44;;;;;;;9.00;6.00;;;;;;;1.13;100.00;98797.60;106635;1261;100113;-83
2023/11/25 10:56:34;;;;;;;8.50;5.50;;;;;;;1.13;100.00;98801.77;106307;1257;99270;-83
2023/11/25 10:59:21;;;;;;;7.30;5.10;;;;;;;1.13;100.00;98806.48;108369;1256;97871;-85
2023/11/25 11:02:19;;;;;;;9.00;5.30;;;;;;;1.13;100.00;98810.19;107656;1256;96601;-86
2023/11/25 11:05:09;;;;;;;8.30;5.00;;;;;;;1.14;100.00;98811.52;105995;1260;97023;-83
2023/11/25 11:08:07;;;;;;;8.90;5.30;;;;;;;1.16;100.00;98812.98;106058;1257;100032;-83
2023/11/25 11:10:59;;;;;;;8.00;4.90;;;;;;;1.19;100.00;98810.91;106199;1263;100473;-81
2023/11/25 11:14:07;;;;;;;11.10;6.50;;;;;;;1.22;100.00;98813.17;106072;1271;106765;-83
2023/11/25 11:17:09;;;;;;;8.40;5.50;;;;;;;1.25;100.00;98817.12;105960;1262;96635;-83
2023/11/25 11:19:59;;;;;;;5.80;4.60;;;;;;;1.26;100.00;98821.83;106241;1257;96763;-81
2023/11/25 11:22:46;;;;;;;7.30;5.20;;;;;;;1.28;100.00;98822.02;106529;1257;100069;-82
2023/11/25 11:25:55;;;;;;;7.70;5.40;;;;;;;1.28;100.00;98821.29;106673;1258;99245;-83
2023/11/25 11:29:16;;;;;;;5.30;4.00;;;;;;;1.32;100.00;98824.45;106165;1263;97803;-83
2023/11/25 11:32:07;;;;;;;6.30;3.90;;;;;;;1.31;100.00;98828.58;106435;1262;96638;-84
2023/11/25 11:34:53;;;;;;;6.20;4.00;;;;;;;1.32;100.00;98835.13;106333;1264;96658;-80
2023/11/25 11:37:48;;;;;;;7.90;3.60;;;;;;;1.33;100.00;98834.63;105997;1265;101371;-82
2023/11/25 11:40:33;;;;;;;5.50;4.20;;;;;;;1.35;100.00;98840.78;106572;1260;99119;-77
2023/11/25 11:43:19;;;;;;;6.20;4.00;;;;;;;1.34;100.00;98846.42;105616;1263;98961;-77
2023/11/25 11:46:05;;;;;;;6.00;3.60;;;;;;;1.35;100.00;98842.27;105569;1260;97496;-78
2023/11/25 11:48:51;;;;;;;16.70;8.10;;;;;;;1.38;100.00;98840.45;105768;1260;95883;-77
2023/11/25 11:51:36;;;;;;;27.00;11.90;;;;;;;1.41;100.00;98842.83;105563;1257;100018;-77
2023/11/25 11:54:24;;;;;;;8.90;5.60;;;;;;;1.45;100.00;98842.43;105666;1264;99120;-77
2023/11/25 11:57:13;;;;;;;7.80;4.40;;;;;;;1.47;100.00;98847.63;105606;1263;99415;-77
2023/11/25 12:00:01;;;;;;;8.40;5.00;;;;;;;1.48;100.00;98847.86;105486;1261;96691;-77
2023/11/25 12:02:47;;;;;;;6.80;3.70;;;;;;;1.50;100.00;98849.96;105709;1262;96617;-77
2023/11/25 12:05:33;;;;;;;6.60;4.30;;;;;;;1.52;100.00;98853.20;105641;1257;100732;-77
2023/11/25 12:08:20;;;;;;;11.00;4.50;;;;;;;1.53;100.00;98849.80;105467;1258;100297;-77
2023/11/25 12:11:06;;;;;;;9.90;4.90;;;;;;;1.52;100.00;98846.58;105802;1260;97718;-76
2023/11/25 12:13:52;;;;;;;6.30;4.40;;;;;;;1.54;100.00;98847.37;105424;1261;96686;-77
2023/11/25 12:16:38;;;;;;;6.80;4.20;;;;;;;1.58;100.00;98847.96;105516;1262;96561;-78
2023/11/25 12:19:24;;;;;;;5.90;4.40;;;;;;;1.60;100.00;98845.41;105748;1260;100070;-78
2023/11/25 12:22:11;;;;;;;7.30;3.60;;;;;;;1.63;100.00;98844.41;106091;1260;99192;-80
2023/11/25 12:24:57;;;;;;;7.10;4.00;;;;;;;1.64;100.00;98843.25;105564;1261;97706;-80
2023/11/25 12:28:09;;;;;;;5.70;4.50;;;;;;;1.65;100.00;98842.33;105990;1264;96645;-85
2023/11/25 12:30:54;;;;;;;7.90;4.50;;;;;;;1.65;100.00;98841.48;106054;1261;97138;-83
2023/11/25 12:33:40;;;;;;;6.70;4.20;;;;;;;1.61;100.00;98837.60;106365;1263;100105;-86
2023/11/25 12:36:26;;;;;;;6.40;4.10;;;;;;;1.60;100.00;98835.14;106108;1258;100520;-85
2023/11/25 12:39:12;;;;;;;5.30;3.60;;;;;;;1.63;100.00;98835.88;106285;1257;97702;-85
2023/11/25 12:42:01;;;;;;;6.70;4.50;;;;;;;1.63;100.00;98835.19;106113;1263;96651;-84
2023/11/25 12:44:51;;;;;;;8.30;4.40;;;;;;;1.61;100.00;98838.23;106136;1263;97055;-86
2023/11/25 12:47:48;;;;;;;8.30;4.50;;;;;;;1.59;100.00;98836.95;106009;1257;100702;-84
2023/11/25 12:50:55;;;;;;;7.50;3.90;;;;;;;1.58;100.00;98841.59;106450;1257;99684;-85
2023/11/25 12:53:54;;;;;;;7.50;4.30;;;;;;;1.59;100.00;98842.46;106337;1257;98599;-85